Time;durP1;ratioP1;P1;durP2;ratioP2;P2;SDS_P1;SDS_P2;PMS_P1;PMS_P2;Temp;Humidity;BMP_temperature;BMP_pressure;BME280_temperature;BME280_humidity;BME280_pressure;Samples;Min_cycle;Max_cycle;Signal;HPM_P1;HPM_P2
2022/06/05 00:00:32;;;;;;;6.77;6.07;;;16.20;79.50;;;;;;5032303;28;20944;-53
2022/06/05 00:03:19;;;;;;;10.23;6.57;;;16.10;80.30;;;;;;5032556;28;20466;-52
2022/06/05 00:05:53;;;;;;;7.50;6.40;;;16.40;81.00;;;;;;5032592;28;20440;-53
2022/06/05 00:08:27;;;;;;;8.93;6.80;;;16.10;80.90;;;;;;5032651;28;20987;-52
2022/06/05 00:10:56;;;;;;;8.30;6.83;;;16.30;81.50;;;;;;5032511;28;20510;-53
2022/06/05 00:13:31;;;;;;;10.27;6.70;;;15.90;81.20;;;;;;5032381;28;20439;-52
2022/06/05 00:15:58;;;;;;;8.03;7.33;;;16.00;82.10;;;;;;5032223;28;20435;-51
2022/06/05 00:18:26;;;;;;;8.13;6.37;;;15.90;82.30;;;;;;5032132;28;20473;-54
2022/06/05 00:20:53;;;;;;;8.57;6.80;;;16.10;82.80;;;;;;5032531;28;20431;-53
2022/06/05 00:23:20;;;;;;;8.00;6.77;;;15.90;82.50;;;;;;5032392;28;20507;-53
2022/06/05 00:25:54;;;;;;;8.60;6.80;;;15.80;83.30;;;;;;5032363;28;20922;-53
2022/06/05 00:28:29;;;;;;;11.97;7.90;;;15.80;83.20;;;;;;5032118;28;20447;-53
2022/06/05 00:31:05;;;;;;;9.30;7.63;;;16.00;83.70;;;;;;5032216;28;20482;-51
2022/06/05 00:33:37;;;;;;;11.77;7.77;;;15.70;83.50;;;;;;5032051;28;20521;-52
2022/06/05 00:36:18;;;;;;;7.23;6.53;;;15.90;83.90;;;;;;5032289;28;20458;-53
2022/06/05 00:38:53;;;;;;;9.23;7.93;;;15.90;84.10;;;;;;5031921;28;20436;-52
2022/06/05 00:41:47;;;;;;;7.80;6.77;;;15.60;84.20;;;;;;5032211;28;20431;-53
2022/06/05 00:44:17;;;;;;;8.20;6.87;;;15.80;84.80;;;;;;5032135;28;20839;-53
2022/06/05 00:46:46;;;;;;;8.53;7.17;;;16.00;85.20;;;;;;5031724;28;20463;-53
2022/06/05 00:49:14;;;;;;;11.67;8.07;;;15.60;85.10;;;;;;5031960;28;20439;-52
2022/06/05 00:51:41;;;;;;;7.07;6.37;;;15.40;85.00;;;;;;5031805;28;20479;-53
2022/06/05 00:54:09;;;;;;;10.10;6.97;;;15.50;85.60;;;;;;5032042;28;20438;-51
2022/06/05 00:56:38;;;;;;;11.30;7.80;;;15.10;85.20;;;;;;5031836;28;20465;-51
2022/06/05 00:59:04;;;;;;;10.63;7.13;;;15.30;86.20;;;;;;5031710;28;20761;-52
2022/06/05 01:01:32;;;;;;;11.57;8.30;;;15.20;86.00;;;;;;5031514;28;20440;-52
2022/06/05 01:04:02;;;;;;;10.30;7.70;;;15.20;86.50;;;;;;5031181;28;20773;-52
2022/06/05 01:06:30;;;;;;;12.50;8.30;;;15.70;86.90;;;;;;5031658;28;20466;-53
2022/06/05 01:08:57;;;;;;;9.70;7.20;;;15.10;86.60;;;;;;5031563;28;20435;-50
2022/06/05 01:11:35;;;;;;;9.90;7.97;;;15.30;87.40;;;;;;5031672;28;20804;-51
2022/06/05 01:14:12;;;;;;;11.20;8.33;;;14.50;87.10;;;;;;5031808;28;20449;-51
2022/06/05 01:16:48;;;;;;;10.63;7.93;;;15.10;88.30;;;;;;5031212;28;20475;-56
2022/06/05 01:19:27;;;;;;;13.67;7.50;;;15.10;89.10;;;;;;5031171;28;20433;-54
2022/06/05 01:22:27;;;;;;;12.77;9.20;;;14.90;89.40;;;;;;5031615;28;20451;-50
2022/06/05 01:25:13;;;;;;;10.33;9.20;;;14.90;90.10;;;;;;5031598;28;20450;-50
2022/06/05 01:27:46;;;;;;;9.60;8.60;;;15.20;90.30;;;;;;5031621;28;20844;-51
2022/06/05 01:30:16;;;;;;;12.17;8.50;;;14.70;90.20;;;;;;5031483;28;20440;-51
2022/06/05 01:32:52;;;;;;;11.03;8.63;;;15.10;90.40;;;;;;5031300;28;20477;-50
2022/06/05 01:35:22;;;;;;;13.40;8.70;;;14.80;90.40;;;;;;5031345;28;20470;-51
2022/06/05 01:37:54;;;;;;;10.47;8.60;;;14.90;90.60;;;;;;5031363;28;20463;-51
2022/06/05 01:40:25;;;;;;;9.83;8.83;;;15.00;91.20;;;;;;5031141;28;20438;-52
2022/06/05 01:42:57;;;;;;;12.47;9.13;;;14.70;91.40;;;;;;5031451;28;20439;-51
2022/06/05 01:45:30;;;;;;;12.20;8.90;;;14.60;91.50;;;;;;5031369;28;20463;-52
2022/06/05 01:47:59;;;;;;;11.57;9.80;;;14.90;91.90;;;;;;5031025;28;20534;-51
2022/06/05 01:50:28;;;;;;;11.40;9.27;;;14.80;92.20;;;;;;5030964;28;20450;-51
2022/06/05 01:53:00;;;;;;;11.07;9.37;;;14.50;92.00;;;;;;5031502;28;20481;-52
2022/06/05 01:55:33;;;;;;;12.27;8.70;;;14.40;92.30;;;;;;5030015;28;20457;-53
2022/06/05 01:58:07;;;;;;;11.83;9.43;;;14.60;92.70;;;;;;5031289;28;20424;-52
2022/06/05 02:00:34;;;;;;;11.03;9.70;;;14.30;92.70;;;;;;5031093;28;20432;-52
2022/06/05 02:03:04;;;;;;;11.40;9.93;;;14.50;93.00;;;;;;5031124;28;20434;-51
2022/06/05 02:05:43;;;;;;;12.00;9.00;;;14.90;93.30;;;;;;5031228;28;20461;-52
2022/06/05 02:08:14;;;;;;;11.40;9.23;;;14.40;93.00;;;;;;5030974;28;20458;-52
2022/06/05 02:10:47;;;;;;;12.23;9.70;;;14.20;93.10;;;;;;5030758;28;20429;-51
2022/06/05 02:13:15;;;;;;;10.63;8.77;;;14.60;93.60;;;;;;5031025;28;20433;-51
2022/06/05 02:15:42;;;;;;;14.07;9.50;;;14.20;93.40;;;;;;5032527;28;20453;-51
2022/06/05 02:18:09;;;;;;;11.13;9.40;;;14.20;93.60;;;;;;5034529;28;20488;-52
2022/06/05 02:20:36;;;;;;;12.37;10.13;;;14.20;93.90;;;;;;5033056;28;20453;-52
2022/06/05 02:23:05;;;;;;;10.97;9.67;;;14.00;93.70;;;;;;5034523;28;20462;-50
2022/06/05 02:25:34;;;;;;;14.23;10.10;;;14.00;94.10;;;;;;5034502;28;20439;-52
2022/06/05 02:28:01;;;;;;;10.80;9.70;;;14.20;94.20;;;;;;5034527;28;20493;-51
2022/06/05 02:30:35;;;;;;;12.47;10.57;;;14.20;94.40;;;;;;5034074;28;20783;-51
2022/06/05 02:33:10;;;;;;;11.97;10.67;;;14.10;94.50;;;;;;5033850;28;20485;-53
2022/06/05 02:35:44;;;;;;;10.70;9.10;;;14.30;95.10;;;;;;5034222;28;20434;-52
2022/06/05 02:38:27;;;;;;;11.40;9.50;;;13.70;94.70;;;;;;5034192;28;20466;-52
2022/06/05 02:41:00;;;;;;;15.13;10.80;;;14.00;95.00;;;;;;5034395;28;20953;-52
2022/06/05 02:43:32;;;;;;;10.70;9.60;;;13.90;95.40;;;;;;5034174;28;20447;-53
2022/06/05 02:46:08;;;;;;;11.97;10.40;;;14.10;95.60;;;;;;5034143;28;20431;-51
2022/06/05 02:48:39;;;;;;;12.40;10.57;;;14.10;96.00;;;;;;5033731;28;20863;-52
2022/06/05 02:51:13;;;;;;;12.93;9.20;;;13.80;96.00;;;;;;5034001;28;20524;-52
2022/06/05 02:53:48;;;;;;;14.93;10.47;;;13.50;96.10;;;;;;5033080;28;20477;-51
2022/06/05 02:56:14;;;;;;;15.23;10.70;;;14.10;96.50;;;;;;5033855;28;20433;-52
2022/06/05 02:58:41;;;;;;;12.17;9.27;;;14.20;96.90;;;;;;5033557;28;20465;-51
2022/06/05 03:03:55;;;;;;;11.60;10.03;;;13.70;96.90;;;;;;5016199;28;20503;-52
2022/06/05 03:06:22;;;;;;;16.90;9.87;;;13.60;97.10;;;;;;5033511;28;20438;-52
2022/06/05 03:08:49;;;;;;;11.30;9.73;;;13.90;97.40;;;;;;5033351;28;20518;-52
2022/06/05 03:11:15;;;;;;;11.53;10.33;;;13.80;97.50;;;;;;5033638;28;20932;-51
2022/06/05 03:13:42;;;;;;;11.77;9.63;;;13.80;97.70;;;;;;5033597;28;20451;-51
2022/06/05 03:16:10;;;;;;;14.07;10.20;;;13.70;97.80;;;;;;5033205;28;20501;-52
2022/06/05 03:18:38;;;;;;;12.57;10.37;;;13.50;97.90;;;;;;5033092;28;20439;-51
2022/06/05 03:21:04;;;;;;;12.53;10.70;;;13.60;98.10;;;;;;5033455;28;20456;-52
2022/06/05 03:23:31;;;;;;;11.47;10.27;;;13.70;98.30;;;;;;5032082;28;20474;-53
2022/06/05 03:25:59;;;;;;;15.50;10.60;;;13.70;98.50;;;;;;5033465;28;20475;-52
2022/06/05 03:28:27;;;;;;;13.47;10.00;;;13.70;98.80;;;;;;5032437;28;20462;-53
2022/06/05 03:30:54;;;;;;;13.60;10.60;;;13.40;98.60;;;;;;5033409;28;20432;-52
2022/06/05 03:33:22;;;;;;;12.30;9.80;;;13.70;98.70;;;;;;5033152;28;20478;-52
2022/06/05 03:35:49;;;;;;;13.30;9.43;;;14.20;99.00;;;;;;5033249;28;20439;-52
2022/06/05 03:38:15;;;;;;;12.77;11.20;;;13.70;98.80;;;;;;5033274;28;20470;-52
2022/06/05 03:40:44;;;;;;;15.07;11.30;;;13.80;98.80;;;;;;5032829;28;20921;-53
2022/06/05 03:43:12;;;;;;;15.50;11.10;;;13.80;98.60;;;;;;5033064;28;20478;-52
2022/06/05 03:45:39;;;;;;;10.60;9.50;;;13.60;98.80;;;;;;5032702;28;20437;-52
2022/06/05 03:48:06;;;;;;;14.63;10.83;;;14.20;99.20;;;;;;5032933;28;20824;-52
2022/06/05 03:50:34;;;;;;;11.97;10.17;;;13.50;98.80;;;;;;5032544;28;20440;-52
2022/06/05 03:53:01;;;;;;;12.33;10.20;;;13.80;98.90;;;;;;5032892;28;20490;-51
2022/06/05 03:55:29;;;;;;;12.87;9.70;;;14.30;99.20;;;;;;5032756;28;20534;-53
2022/06/05 03:57:55;;;;;;;13.50;11.13;;;13.40;99.00;;;;;;5032669;28;20478;-52
2022/06/05 04:00:22;;;;;;;12.17;10.47;;;14.10;99.30;;;;;;5032260;28;20526;-52
2022/06/05 04:02:50;;;;;;;10.43;9.30;;;13.90;98.90;;;;;;5031208;28;20443;-52
2022/06/05 04:05:20;;;;;;;12.67;9.20;;;14.30;99.10;;;;;;5032747;28;20529;-53
2022/06/05 04:07:48;;;;;;;11.90;9.77;;;14.10;98.70;;;;;;5032579;28;20826;-51
2022/06/05 04:10:16;;;;;;;14.17;9.60;;;14.30;98.60;;;;;;5032564;28;20793;-52
2022/06/05 04:12:44;;;;;;;10.57;9.50;;;14.90;98.60;;;;;;5032510;28;20478;-52
2022/06/05 04:15:11;;;;;;;14.80;10.50;;;14.90;98.20;;;;;;5032524;28;20805;-53
2022/06/05 04:17:39;;;;;;;10.93;9.83;;;15.10;98.00;;;;;;5032635;28;20476;-53
2022/06/05 04:20:07;;;;;;;10.73;9.57;;;15.10;97.70;;;;;;5031975;28;20923;-52
2022/06/05 04:22:34;;;;;;;11.00;9.30;;;15.20;97.40;;;;;;5032407;28;20801;-53
2022/06/05 04:25:02;;;;;;;13.40;9.27;;;15.20;97.00;;;;;;5032259;28;20505;-52
2022/06/05 04:27:29;;;;;;;11.70;9.17;;;15.30;96.70;;;;;;5032191;28;20543;-53
2022/06/05 04:29:58;;;;;;;9.80;8.80;;;15.70;96.60;;;;;;5031751;28;20445;-52
2022/06/05 04:32:24;;;;;;;11.70;9.47;;;15.80;96.30;;;;;;5032034;28;20474;-52
2022/06/05 04:34:51;;;;;;;12.23;9.43;;;15.80;95.90;;;;;;5032120;28;20503;-52
2022/06/05 04:37:18;;;;;;;10.57;8.03;;;15.90;95.50;;;;;;5032321;28;20463;-52
2022/06/05 04:39:44;;;;;;;14.73;9.90;;;16.10;95.20;;;;;;5032370;28;20447;-53
2022/06/05 04:42:12;;;;;;;10.60;8.50;;;16.00;94.90;;;;;;5032654;28;20948;-52
2022/06/05 04:44:39;;;;;;;9.77;8.63;;;16.30;94.80;;;;;;5032183;28;20443;-52
2022/06/05 04:47:05;;;;;;;13.17;8.30;;;16.30;94.40;;;;;;5031963;28;20862;-52
2022/06/05 04:49:34;;;;;;;11.60;8.10;;;16.40;94.20;;;;;;5031721;28;20429;-51
2022/06/05 04:52:01;;;;;;;8.70;7.80;;;16.40;94.00;;;;;;5032030;28;20593;-53
2022/06/05 04:54:27;;;;;;;9.80;7.63;;;16.50;93.80;;;;;;5031856;28;20432;-53
2022/06/05 04:56:54;;;;;;;8.87;7.97;;;17.00;93.90;;;;;;5031542;28;20566;-51
2022/06/05 04:59:22;;;;;;;8.17;7.37;;;16.00;93.30;;;;;;5031416;28;20446;-52
2022/06/05 05:01:48;;;;;;;10.70;7.73;;;16.40;93.40;;;;;;5031306;28;20443;-52
2022/06/05 05:04:15;;;;;;;9.37;8.47;;;16.50;93.40;;;;;;5031529;28;20448;-52
2022/06/05 05:06:44;;;;;;;9.73;8.37;;;17.00;93.30;;;;;;5031559;28;20459;-52
2022/06/05 05:09:11;;;;;;;9.43;7.73;;;17.00;93.20;;;;;;5031238;28;20431;-53
2022/06/05 05:11:38;;;;;;;8.93;7.77;;;16.90;93.10;;;;;;5031455;28;20941;-52
2022/06/05 05:14:05;;;;;;;10.50;8.07;;;16.60;92.80;;;;;;5031411;28;21061;-51
2022/06/05 05:16:33;;;;;;;10.57;7.50;;;17.40;93.20;;;;;;5031173;28;20463;-52
2022/06/05 05:19:00;;;;;;;8.33;7.53;;;17.10;92.80;;;;;;5030133;28;20441;-52
2022/06/05 05:21:27;;;;;;;8.33;6.70;;;17.20;92.70;;;;;;5030685;28;20936;-51
2022/06/05 05:23:55;;;;;;;13.73;7.83;;;17.10;92.80;;;;;;5030710;28;20458;-52
2022/06/05 05:26:25;;;;;;;11.50;7.57;;;17.00;92.30;;;;;;5030602;28;20951;-52
2022/06/05 05:28:52;;;;;;;8.27;6.93;;;17.40;92.30;;;;;;5030301;28;20523;-52
2022/06/05 05:31:20;;;;;;;8.83;7.30;;;17.50;92.20;;;;;;5030521;28;20514;-52
2022/06/05 05:33:49;;;;;;;10.40;7.83;;;17.60;92.10;;;;;;5030522;28;20475;-53
2022/06/05 05:36:17;;;;;;;7.90;7.20;;;17.70;92.00;;;;;;5030205;28;20926;-52
2022/06/05 05:42:04;;;;;;;9.23;6.93;;;17.40;92.00;;;;;;5029954;28;20950;-53
2022/06/05 05:44:17;;;;;;;7.57;6.87;;;18.20;91.60;;;;;;5030241;28;20437;-52
2022/06/05 05:46:44;;;;;;;11.77;7.60;;;18.30;91.50;;;;;;5030143;28;20447;-52
2022/06/05 05:49:12;;;;;;;9.10;6.73;;;17.70;91.00;;;;;;5029833;28;20437;-52
2022/06/05 05:51:39;;;;;;;9.63;7.67;;;18.50;91.10;;;;;;5033385;28;20530;-52
2022/06/05 05:54:07;;;;;;;8.80;6.40;;;18.00;90.60;;;;;;5033790;28;20503;-53
2022/06/05 05:56:33;;;;;;;8.43;7.43;;;18.00;90.80;;;;;;5033641;28;20453;-52
2022/06/05 05:59:01;;;;;;;8.47;7.23;;;18.20;90.60;;;;;;5033355;28;20445;-52
2022/06/05 06:01:28;;;;;;;10.20;7.60;;;18.20;90.50;;;;;;5033623;28;20436;-53
2022/06/05 06:03:55;;;;;;;11.57;7.87;;;18.30;90.50;;;;;;5033790;28;20437;-52
2022/06/05 06:06:26;;;;;;;9.30;7.60;;;18.50;90.50;;;;;;5033678;28;20918;-52
2022/06/05 06:08:52;;;;;;;7.60;6.83;;;18.60;90.40;;;;;;5033384;28;20440;-52
2022/06/05 06:11:19;;;;;;;9.53;6.97;;;18.70;90.40;;;;;;5033785;28;20426;-52
2022/06/05 06:13:46;;;;;;;7.77;6.60;;;18.70;90.10;;;;;;5033318;28;20486;-51
2022/06/05 06:18:47;;;;;;;12.20;8.03;;;18.70;90.10;;;;;;5109312;27;20997;-52
2022/06/05 06:21:14;;;;;;;9.40;7.70;;;18.90;89.90;;;;;;5109929;28;20537;-52
2022/06/05 06:23:40;;;;;;;9.50;7.30;;;19.00;90.00;;;;;;5108468;28;20493;-53
2022/06/05 06:26:08;;;;;;;8.03;6.90;;;18.90;89.90;;;;;;5109245;28;20792;-52
2022/06/05 06:28:34;;;;;;;8.80;7.07;;;19.00;89.70;;;;;;5109106;28;20427;-51
2022/06/05 06:31:04;;;;;;;9.13;8.23;;;19.00;89.50;;;;;;5081866;22;20830;-45
2022/06/05 06:33:31;;;;;;;13.13;8.00;;;19.10;89.20;;;;;;5048699;28;20457;-46
2022/06/05 06:36:02;;;;;;;7.97;6.90;;;19.20;89.00;;;;;;5048801;28;20434;-47
2022/06/05 06:38:29;;;;;;;9.20;7.50;;;19.50;89.30;;;;;;5047881;28;20527;-48
2022/06/05 06:41:00;;;;;;;8.70;7.80;;;19.10;88.60;;;;;;5048318;28;20449;-45
2022/06/05 06:43:26;;;;;;;10.17;7.77;;;19.50;88.40;;;;;;5047898;28;20438;-48
2022/06/05 06:45:53;;;;;;;9.80;7.80;;;19.80;88.50;;;;;;5047958;28;20441;-46
2022/06/05 06:48:20;;;;;;;7.90;7.07;;;19.80;88.20;;;;;;5047889;28;20579;-47
2022/06/05 06:50:46;;;;;;;10.70;8.10;;;19.80;88.00;;;;;;5047545;28;20477;-46
2022/06/05 06:53:15;;;;;;;9.13;7.47;;;19.80;87.50;;;;;;5047750;28;20435;-47
2022/06/05 06:55:41;;;;;;;9.40;6.80;;;19.90;87.50;;;;;;5047820;28;20444;-46
2022/06/05 06:58:08;;;;;;;8.90;7.70;;;19.90;87.30;;;;;;5047533;28;20478;-45
2022/06/05 07:00:35;;;;;;;9.07;8.00;;;19.90;87.10;;;;;;5047430;28;20974;-45
2022/06/05 07:03:01;;;;;;;10.30;7.27;;;20.00;87.10;;;;;;5047585;28;20470;-45
2022/06/05 07:05:28;;;;;;;9.40;8.50;;;20.00;87.00;;;;;;5047762;28;20430;-46
2022/06/05 07:07:54;;;;;;;9.40;8.50;;;20.00;86.90;;;;;;5047758;28;20437;-46
2022/06/05 07:10:22;;;;;;;8.77;7.90;;;19.70;86.70;;;;;;5047141;28;20465;-47
2022/06/05 07:12:49;;;;;;;8.23;7.43;;;19.90;87.00;;;;;;5047530;28;20471;-48
2022/06/05 07:15:16;;;;;;;10.70;7.67;;;20.00;87.10;;;;;;5047543;28;20434;-47
2022/06/05 07:17:43;;;;;;;9.77;7.60;;;20.00;87.00;;;;;;5047487;28;20475;-46
2022/06/05 07:20:10;;;;;;;7.87;7.13;;;20.10;87.00;;;;;;5047305;28;20508;-47
2022/06/05 07:22:36;;;;;;;8.10;7.30;;;20.00;86.80;;;;;;5047447;28;20457;-45
2022/06/05 07:25:04;;;;;;;8.90;6.30;;;20.00;86.70;;;;;;5047109;28;20431;-45
2022/06/05 07:27:32;;;;;;;8.03;7.00;;;20.20;86.70;;;;;;5047294;28;20440;-45
2022/06/05 07:29:59;;;;;;;8.93;8.03;;;20.20;86.70;;;;;;5016731;28;20493;-46
2022/06/05 07:32:25;;;;;;;10.00;6.30;;;20.30;86.80;;;;;;5033882;28;20436;-48
2022/06/05 07:34:52;;;;;;;8.00;7.10;;;20.30;86.80;;;;;;5033960;28;20446;-47
2022/06/05 07:37:19;;;;;;;7.13;6.37;;;20.10;86.50;;;;;;5033923;28;20467;-45
2022/06/05 07:39:46;;;;;;;7.30;6.60;;;20.50;86.30;;;;;;5016151;28;20463;-45
2022/06/05 07:42:13;;;;;;;7.40;6.37;;;20.40;86.50;;;;;;5034023;28;20448;-45
2022/06/05 07:44:41;;;;;;;13.40;6.73;;;20.50;85.40;;;;;;5033752;28;20431;-45
2022/06/05 07:47:08;;;;;;;7.80;7.00;;;20.30;85.10;;;;;;5033888;28;20432;-46
2022/06/05 07:49:38;;;;;;;9.47;6.40;;;20.50;85.40;;;;;;5033152;28;20875;-46
2022/06/05 07:54:49;;;;;;;8.10;7.13;;;20.40;85.30;;;;;;5033669;28;20432;-45
2022/06/05 07:57:18;;;;;;;7.17;6.40;;;20.50;84.90;;;;;;5033240;28;20846;-45
2022/06/05 07:59:48;;;;;;;7.60;6.80;;;20.50;84.60;;;;;;5032655;28;21007;-46
2022/06/05 08:02:18;;;;;;;10.93;7.17;;;20.40;84.60;;;;;;5033324;28;20448;-46
2022/06/05 08:04:45;;;;;;;7.83;6.03;;;20.30;85.10;;;;;;5015192;28;20451;-47
2022/06/05 08:07:15;;;;;;;8.60;6.60;;;20.60;85.00;;;;;;5033276;28;20447;-45
2022/06/05 08:09:43;;;;;;;8.03;7.20;;;20.10;84.10;;;;;;5032992;28;20463;-46
2022/06/05 08:12:11;;;;;;;7.80;6.13;;;20.60;84.60;;;;;;5015232;28;20941;-47
2022/06/05 08:14:40;;;;;;;8.87;6.60;;;20.40;84.60;;;;;;5033260;28;20432;-47
2022/06/05 08:17:11;;;;;;;8.00;7.20;;;20.80;84.70;;;;;;5033091;28;20432;-48
2022/06/05 08:19:38;;;;;;;8.63;6.60;;;20.70;84.10;;;;;;5033338;28;20449;-47
2022/06/05 08:22:06;;;;;;;7.10;6.00;;;20.70;83.90;;;;;;5033878;28;20507;-47
2022/06/05 08:24:32;;;;;;;6.93;6.23;;;20.80;84.00;;;;;;5033873;28;20506;-45
2022/06/05 08:26:59;;;;;;;7.30;6.60;;;20.40;83.40;;;;;;5033449;28;20846;-47
2022/06/05 08:29:26;;;;;;;7.67;5.87;;;20.90;83.70;;;;;;5033516;28;20472;-47
2022/06/05 08:31:53;;;;;;;8.43;5.87;;;20.60;82.30;;;;;;5033518;28;20522;-45
2022/06/05 08:34:22;;;;;;;6.60;5.87;;;20.80;82.10;;;;;;5034131;28;20437;-47
2022/06/05 08:41:26;;;;;;;6.13;5.53;;;20.90;81.70;;;;;;5032695;28;20962;-46
2022/06/05 08:42:35;;;;;;;5.70;5.20;;;20.90;80.60;;;;;;5032046;28;20504;-48
2022/06/05 08:45:10;;;;;;;8.67;5.07;;;21.00;79.20;;;;;;5032634;28;20465;-47
2022/06/05 08:47:40;;;;;;;6.03;5.23;;;21.10;78.30;;;;;;5032750;28;20949;-46
2022/06/05 08:50:16;;;;;;;7.50;5.30;;;21.30;78.60;;;;;;5031923;28;20466;-46
2022/06/05 08:52:49;;;;;;;6.17;5.17;;;20.90;77.80;;;;;;5032728;28;20430;-47
2022/06/05 08:55:20;;;;;;;5.57;4.63;;;21.20;77.70;;;;;;5032896;28;20557;-45
2022/06/05 08:57:52;;;;;;;5.47;4.97;;;20.70;76.40;;;;;;5032465;28;20479;-45
2022/06/05 09:00:24;;;;;;;4.80;4.30;;;21.30;74.40;;;;;;5031864;28;20517;-46
2022/06/05 09:02:59;;;;;;;9.73;4.90;;;21.30;73.00;;;;;;5032358;28;20860;-46
2022/06/05 09:05:32;;;;;;;5.37;4.40;;;21.30;73.00;;;;;;5032011;28;20445;-46
2022/06/05 09:08:03;;;;;;;5.90;5.20;;;21.20;72.90;;;;;;5032537;28;20433;-46
2022/06/05 09:10:35;;;;;;;5.30;4.90;;;21.20;73.70;;;;;;5031976;28;20462;-49
2022/06/05 09:13:08;;;;;;;8.67;5.33;;;21.90;74.50;;;;;;5032371;28;20448;-46
2022/06/05 09:15:40;;;;;;;5.73;4.50;;;21.70;73.30;;;;;;5031951;28;20441;-47
2022/06/05 09:18:14;;;;;;;6.50;5.90;;;21.30;73.10;;;;;;5032221;28;20497;-46
2022/06/05 09:20:49;;;;;;;5.43;4.63;;;21.60;72.80;;;;;;5031101;28;21047;-45
2022/06/05 09:23:22;;;;;;;5.67;5.13;;;21.60;73.10;;;;;;5031543;28;20440;-46
2022/06/05 09:25:57;;;;;;;5.60;4.83;;;21.30;71.70;;;;;;5031654;28;20431;-46
2022/06/05 09:29:04;;;;;;;6.03;4.80;;;21.70;71.50;;;;;;5031337;28;20541;-46
2022/06/05 09:32:04;;;;;;;6.73;5.00;;;21.90;71.80;;;;;;5031875;28;20866;-46
2022/06/05 09:34:34;;;;;;;5.20;4.70;;;22.20;72.00;;;;;;5031496;28;20434;-47
2022/06/05 09:37:09;;;;;;;6.63;5.33;;;21.70;71.80;;;;;;5031653;28;20513;-48
2022/06/05 09:39:45;;;;;;;4.97;4.50;;;21.70;72.10;;;;;;5031233;28;20565;-47
2022/06/05 09:42:26;;;;;;;6.67;4.40;;;21.80;72.40;;;;;;5031143;28;20446;-47
2022/06/05 09:45:07;;;;;;;5.50;4.87;;;21.90;72.50;;;;;;5031329;28;20515;-45
2022/06/05 09:47:41;;;;;;;5.13;4.20;;;22.10;72.00;;;;;;5031189;28;20437;-47
2022/06/05 09:50:21;;;;;;;7.57;5.00;;;22.20;70.80;;;;;;5030882;28;20453;-46
2022/06/05 09:52:49;;;;;;;4.73;4.20;;;22.20;70.20;;;;;;5030538;28;20423;-46
2022/06/05 09:55:20;;;;;;;4.10;3.70;;;22.20;69.30;;;;;;5031680;28;20441;-46
2022/06/05 10:00:48;;;;;;;6.23;3.77;;;22.40;67.70;;;;;;5030711;28;20568;-46
2022/06/05 10:03:18;;;;;;;4.20;3.80;;;22.20;67.40;;;;;;5030741;28;20446;-46
2022/06/05 10:06:06;;;;;;;4.20;3.80;;;22.40;66.70;;;;;;5031036;28;20802;-46
2022/06/05 10:08:42;;;;;;;3.80;3.50;;;22.50;66.50;;;;;;5030924;28;20436;-46
2022/06/05 10:11:24;;;;;;;6.10;3.97;;;22.50;65.90;;;;;;5031069;28;20459;-46
2022/06/05 10:14:02;;;;;;;4.53;4.10;;;22.50;65.80;;;;;;5031346;28;20788;-46
2022/06/05 10:16:35;;;;;;;4.97;4.30;;;22.60;66.10;;;;;;5031643;28;20945;-45
2022/06/05 10:19:23;;;;;;;5.27;4.23;;;22.30;66.10;;;;;;5013234;28;21015;-46
2022/06/05 10:21:58;;;;;;;4.60;4.20;;;22.70;66.40;;;;;;5030720;28;20838;-46
2022/06/05 10:24:38;;;;;;;4.17;3.77;;;22.70;66.00;;;;;;5030825;28;20450;-47
2022/06/05 10:27:06;;;;;;;4.77;4.37;;;22.80;66.20;;;;;;5030888;28;20431;-46
2022/06/05 10:29:37;;;;;;;5.10;4.60;;;22.70;65.80;;;;;;5030070;28;20478;-47
2022/06/05 10:32:07;;;;;;;4.43;4.07;;;22.60;65.30;;;;;;5030532;28;20900;-47
2022/06/05 10:34:41;;;;;;;5.00;4.53;;;22.80;65.90;;;;;;5030500;28;20534;-47
2022/06/05 10:37:21;;;;;;;4.83;4.43;;;22.90;66.60;;;;;;5030926;28;20427;-45
2022/06/05 10:39:58;;;;;;;6.40;4.60;;;23.00;67.00;;;;;;5030467;28;20524;-48
2022/06/05 10:42:34;;;;;;;5.13;4.63;;;23.00;67.10;;;;;;5012264;28;20462;-46
2022/06/05 10:45:20;;;;;;;5.13;4.40;;;23.00;67.30;;;;;;5030534;28;20447;-46
2022/06/05 10:48:01;;;;;;;5.53;5.03;;;23.10;67.30;;;;;;5030152;28;20432;-46
2022/06/05 10:50:34;;;;;;;5.27;4.57;;;23.20;67.60;;;;;;5030264;28;20828;-45
2022/06/05 10:53:11;;;;;;;6.77;5.13;;;23.10;68.10;;;;;;5030429;28;20838;-46
2022/06/05 10:55:50;;;;;;;5.63;4.93;;;23.40;67.60;;;;;;5012365;28;20587;-46
2022/06/05 10:58:22;;;;;;;6.00;5.40;;;23.40;67.50;;;;;;5030382;28;20702;-46
2022/06/05 11:00:59;;;;;;;6.57;5.93;;;23.30;67.60;;;;;;5029755;28;20470;-45
2022/06/05 11:03:36;;;;;;;6.47;5.50;;;23.50;68.00;;;;;;5031111;28;20505;-47
2022/06/05 11:06:18;;;;;;;6.53;5.73;;;23.60;68.30;;;;;;5034246;28;20441;-49
2022/06/05 11:08:56;;;;;;;5.97;5.47;;;23.60;68.70;;;;;;5033693;28;20442;-47
2022/06/05 11:14:20;;;;;;;6.97;5.57;;;23.60;68.90;;;;;;5033756;28;20433;-49
2022/06/05 11:16:53;;;;;;;8.00;6.50;;;23.80;68.80;;;;;;5034133;28;20435;-47
2022/06/05 11:19:27;;;;;;;6.67;6.07;;;23.80;68.60;;;;;;5033180;28;20489;-47
2022/06/05 11:21:59;;;;;;;6.73;6.13;;;23.80;68.30;;;;;;5034218;28;20436;-46
2022/06/05 11:24:29;;;;;;;6.07;5.57;;;23.80;68.70;;;;;;5015902;28;20534;-48
2022/06/05 11:27:05;;;;;;;8.73;6.43;;;23.80;68.70;;;;;;5033908;28;20448;-46
2022/06/05 11:29:42;;;;;;;6.00;5.40;;;23.80;69.00;;;;;;5033171;28;20804;-45
2022/06/05 11:32:19;;;;;;;7.17;6.30;;;23.90;69.50;;;;;;5033377;28;20437;-46
2022/06/05 11:34:53;;;;;;;6.50;5.80;;;23.90;69.00;;;;;;5033775;28;20438;-48
2022/06/05 11:37:50;;;;;;;6.13;5.63;;;23.90;69.00;;;;;;5033731;28;20966;-48
2022/06/05 11:40:41;;;;;;;6.93;6.33;;;24.00;69.20;;;;;;5030430;28;20516;-47
2022/06/05 11:43:27;;;;;;;6.40;5.80;;;23.80;69.30;;;;;;5033425;28;20453;-47
2022/06/05 11:45:58;;;;;;;7.60;6.60;;;23.90;69.60;;;;;;5033669;28;20437;-45
2022/06/05 11:48:31;;;;;;;6.43;5.90;;;23.90;69.90;;;;;;5015421;28;20959;-48
2022/06/05 11:51:06;;;;;;;7.23;6.27;;;23.90;70.10;;;;;;5033287;28;20862;-46
2022/06/05 11:53:40;;;;;;;6.90;6.20;;;24.00;70.50;;;;;;5033230;28;20445;-46
2022/06/05 11:56:24;;;;;;;7.20;6.30;;;23.70;69.70;;;;;;5033224;28;20793;-47
2022/06/05 11:59:00;;;;;;;7.03;6.33;;;24.20;70.10;;;;;;5033116;28;20479;-45
2022/06/05 12:01:31;;;;;;;9.00;7.10;;;24.20;70.40;;;;;;5015074;28;20451;-48
2022/06/05 12:04:06;;;;;;;8.77;6.57;;;24.30;70.40;;;;;;5033006;28;20435;-47
2022/06/05 12:06:38;;;;;;;6.43;5.87;;;24.20;70.20;;;;;;5033234;28;20564;-46
2022/06/05 12:09:11;;;;;;;5.87;5.17;;;24.10;70.10;;;;;;5014399;28;20462;-46
2022/06/05 12:11:42;;;;;;;6.07;5.50;;;24.20;68.20;;;;;;5033089;28;20521;-46
2022/06/05 12:14:19;;;;;;;6.00;5.40;;;24.30;66.80;;;;;;5033016;28;20446;-47
2022/06/05 12:16:51;;;;;;;6.90;6.17;;;24.20;68.30;;;;;;5032589;28;20440;-46
2022/06/05 12:19:27;;;;;;;7.00;6.30;;;24.30;69.00;;;;;;5032465;28;20859;-45
2022/06/05 12:22:02;;;;;;;6.83;6.13;;;24.40;69.30;;;;;;5032722;28;20927;-45
2022/06/05 12:24:36;;;;;;;6.70;6.10;;;24.50;69.00;;;;;;5032815;28;20443;-47
2022/06/05 12:27:10;;;;;;;7.47;6.17;;;24.50;68.50;;;;;;5032480;28;20450;-47
2022/06/05 12:29:44;;;;;;;6.33;5.83;;;24.50;67.80;;;;;;5046927;22;20466;-50
2022/06/05 12:32:16;;;;;;;6.40;5.90;;;24.40;68.00;;;;;;5012840;28;20447;-51
2022/06/05 12:34:47;;;;;;;8.80;6.17;;;24.60;68.40;;;;;;5013262;28;20426;-51
2022/06/05 12:37:19;;;;;;;7.07;5.40;;;24.60;67.90;;;;;;5012535;28;20424;-53
2022/06/05 12:39:49;;;;;;;10.53;5.90;;;24.70;67.80;;;;;;5012054;28;20484;-52
2022/06/05 12:42:27;;;;;;;6.47;5.87;;;24.70;67.50;;;;;;5012420;28;20428;-51
2022/06/05 12:44:57;;;;;;;6.80;6.20;;;24.70;67.20;;;;;;5010936;28;20551;-51
2022/06/05 12:47:38;;;;;;;9.20;6.10;;;24.70;67.40;;;;;;5012860;28;20455;-50
2022/06/05 12:50:18;;;;;;;6.67;6.17;;;24.70;67.80;;;;;;5011806;28;20544;-52
2022/06/05 12:52:52;;;;;;;11.23;5.27;;;24.80;67.90;;;;;;5012672;28;20429;-52
2022/06/05 12:55:24;;;;;;;6.90;6.30;;;24.90;67.40;;;;;;5012409;28;20439;-52
2022/06/05 12:57:58;;;;;;;7.37;6.70;;;24.90;67.00;;;;;;5012405;28;20481;-51
2022/06/05 13:00:41;;;;;;;10.20;7.00;;;24.90;66.70;;;;;;5011688;28;20482;-52
2022/06/05 13:03:18;;;;;;;7.57;6.83;;;25.00;67.60;;;;;;5012378;28;20439;-52
2022/06/05 13:05:48;;;;;;;7.57;6.90;;;25.10;68.00;;;;;;5012287;28;20443;-53
2022/06/05 13:08:24;;;;;;;7.30;6.40;;;25.00;67.90;;;;;;5012447;28;20956;-52
2022/06/05 13:10:56;;;;;;;7.20;6.50;;;25.10;68.00;;;;;;5012005;28;20464;-53
2022/06/05 13:13:34;;;;;;;6.97;6.37;;;25.10;68.00;;;;;;5012449;28;20486;-53
2022/06/05 13:16:07;;;;;;;7.23;6.63;;;25.20;68.20;;;;;;5012253;28;20440;-53
2022/06/05 13:18:41;;;;;;;8.93;6.77;;;25.20;68.00;;;;;;5011973;28;20448;-53
2022/06/05 13:21:20;;;;;;;7.77;6.97;;;25.20;67.60;;;;;;5011673;28;20863;-53
2022/06/05 13:23:56;;;;;;;9.03;6.17;;;25.20;67.20;;;;;;5012031;28;20432;-53